Time;durP1;ratioP1;P1;durP2;ratioP2;P2;SDS_P1;SDS_P2;PMS_P1;PMS_P2;Temp;Humidity;BMP_temperature;BMP_pressure;BME280_temperature;BME280_humidity;BME280_pressure;Samples;Min_cycle;Max_cycle;Signal;HPM_P1;HPM_P2
2021/11/26 00:00:59;;;;;;;4.85;2.38;;;3.50;94.30;;;;;;2065367;28;20023;-93
2021/11/26 00:02:00;;;;;;;5.25;2.50;;;3.50;94.30;;;;;;2065541;28;20109;-92
2021/11/26 00:03:01;;;;;;;7.57;2.90;;;3.50;94.30;;;;;;2065213;28;20015;-92
2021/11/26 00:04:02;;;;;;;5.10;2.30;;;3.50;94.30;;;;;;2064309;28;20030;-93
2021/11/26 00:05:03;;;;;;;5.88;2.42;;;3.50;94.30;;;;;;2073279;28;20084;-92
2021/11/26 00:06:04;;;;;;;6.43;2.50;;;3.50;94.30;;;;;;2083113;28;20026;-92
2021/11/26 00:07:05;;;;;;;5.38;2.60;;;3.50;94.30;;;;;;2077237;28;20026;-91
2021/11/26 00:08:06;;;;;;;4.38;2.28;;;3.50;94.30;;;;;;2069252;28;20026;-92
2021/11/26 00:09:06;;;;;;;5.72;2.00;;;3.50;94.30;;;;;;2086036;28;20132;-92
2021/11/26 00:10:07;;;;;;;5.82;2.15;;;3.50;94.30;;;;;;2087165;28;20029;-93
2021/11/26 00:11:08;;;;;;;5.47;2.42;;;3.50;94.30;;;;;;2073806;28;20032;-93
2021/11/26 00:12:09;;;;;;;5.82;2.45;;;3.50;94.30;;;;;;2065489;28;20049;-94
2021/11/26 00:13:11;;;;;;;4.68;2.10;;;3.50;94.30;;;;;;2074833;28;20116;-93
2021/11/26 00:14:22;;;;;;;5.57;2.30;;;3.50;94.30;;;;;;2083000;28;20093;-92
2021/11/26 00:15:36;;;;;;;;;;;3.50;94.30;;;;;;2094430;28;20052;-92
2021/11/26 00:16:41;;;;;;;5.85;2.20;;;3.50;94.30;;;;;;2096409;28;19927;-91
2021/11/26 00:17:49;;;;;;;4.40;2.20;;;3.60;94.30;;;;;;2098165;28;20034;-85
2021/11/26 00:18:52;;;;;;;6.93;2.20;;;3.50;94.20;;;;;;2100143;28;20005;-92
2021/11/26 00:19:53;;;;;;;5.25;2.20;;;3.50;94.20;;;;;;2100095;28;20085;-92
2021/11/26 00:20:55;;;;;;;5.60;2.25;;;3.50;94.20;;;;;;2098478;28;20025;-89
2021/11/26 00:21:57;;;;;;;5.53;2.10;;;3.60;94.20;;;;;;2100139;28;20027;-86
2021/11/26 00:22:58;;;;;;;6.28;2.22;;;3.60;94.20;;;;;;2090887;28;20017;-91
2021/11/26 00:23:58;;;;;;;5.18;2.10;;;3.60;94.30;;;;;;2083613;28;20010;-92
2021/11/26 00:24:59;;;;;;;6.10;2.40;;;3.60;94.20;;;;;;2075551;28;20014;-92
2021/11/26 00:25:59;;;;;;;5.28;2.00;;;3.60;94.30;;;;;;2080343;28;20022;-93
2021/11/26 00:27:00;;;;;;;5.90;2.13;;;3.60;94.20;;;;;;2078381;28;20049;-94
2021/11/26 00:28:01;;;;;;;3.75;2.10;;;3.60;94.20;;;;;;2084965;28;20029;-93
2021/11/26 00:29:02;;;;;;;5.97;2.20;;;3.60;94.20;;;;;;2090446;28;20021;-93
2021/11/26 00:30:03;;;;;;;5.47;2.20;;;3.60;94.20;;;;;;2079384;28;20033;-94
2021/11/26 00:31:04;;;;;;;4.10;1.90;;;3.60;94.20;;;;;;2078967;28;20032;-93
2021/11/26 00:32:05;;;;;;;4.70;2.20;;;3.60;94.20;;;;;;2081554;28;20029;-92
2021/11/26 00:33:06;;;;;;;4.20;2.15;;;3.60;94.20;;;;;;2071874;28;20039;-91
2021/11/26 00:34:07;;;;;;;7.80;2.35;;;3.60;94.20;;;;;;2089647;28;20069;-92
2021/11/26 00:35:08;;;;;;;4.60;2.10;;;3.60;94.20;;;;;;2080883;28;20510;-93
2021/11/26 00:36:08;;;;;;;5.45;2.13;;;3.60;94.20;;;;;;2064449;28;20035;-93
2021/11/26 00:37:09;;;;;;;5.82;2.58;;;3.70;94.20;;;;;;2072543;28;20135;-92
2021/11/26 00:38:10;;;;;;;6.22;2.47;;;3.70;94.20;;;;;;2080907;28;20567;-94
2021/11/26 00:39:10;;;;;;;4.05;2.08;;;3.70;94.20;;;;;;2073043;28;20065;-93
2021/11/26 00:40:12;;;;;;;5.30;2.00;;;3.70;94.20;;;;;;2065087;28;20030;-93
2021/11/26 00:41:12;;;;;;;5.40;2.40;;;3.70;94.20;;;;;;2065334;28;20084;-93
2021/11/26 00:42:13;;;;;;;6.00;2.15;;;3.70;94.20;;;;;;2080923;28;20075;-92
2021/11/26 00:43:14;;;;;;;4.53;2.05;;;3.70;94.20;;;;;;2073291;28;20154;-92
2021/11/26 00:44:15;;;;;;;5.13;1.77;;;3.70;94.20;;;;;;2073434;28;20428;-92
2021/11/26 00:45:16;;;;;;;4.38;1.95;;;3.70;94.20;;;;;;2073016;28;20086;-93
2021/11/26 00:46:18;;;;;;;4.13;2.00;;;3.70;94.20;;;;;;2080028;28;20140;-92
2021/11/26 00:47:20;;;;;;;3.70;1.83;;;3.70;94.20;;;;;;2081458;28;20018;-92
2021/11/26 00:48:21;;;;;;;6.05;2.22;;;3.70;94.50;;;;;;2073445;28;20117;-93
2021/11/26 00:49:22;;;;;;;5.28;2.28;;;3.70;94.20;;;;;;2073710;28;20034;-93
2021/11/26 00:50:22;;;;;;;5.10;2.10;;;3.70;94.20;;;;;;2072772;28;20480;-93
2021/11/26 00:51:23;;;;;;;5.82;2.70;;;3.80;94.20;;;;;;2065383;28;20141;-93
2021/11/26 00:52:24;;;;;;;5.53;1.90;;;3.80;94.20;;;;;;2065480;28;20031;-93
2021/11/26 00:53:24;;;;;;;4.88;1.88;;;3.80;94.20;;;;;;2056809;28;20090;-93
2021/11/26 00:54:25;;;;;;;5.45;2.13;;;3.80;94.20;;;;;;2072584;28;20038;-93
2021/11/26 00:55:26;;;;;;;5.13;2.10;;;3.80;94.20;;;;;;2075004;28;20049;-93
2021/11/26 00:56:27;;;;;;;5.60;2.20;;;3.80;94.20;;;;;;2074913;28;20034;-93
2021/11/26 00:57:28;;;;;;;4.57;2.22;;;3.80;94.20;;;;;;2088945;28;20021;-92
2021/11/26 00:58:28;;;;;;;5.97;2.13;;;3.80;94.20;;;;;;2060628;28;20034;-92
2021/11/26 00:59:31;;;;;;;5.95;2.30;;;3.80;94.20;;;;;;2067266;28;20032;-93
2021/11/26 01:00:32;;;;;;;6.47;2.00;;;3.80;94.20;;;;;;2075545;28;20029;-93
2021/11/26 01:01:32;;;;;;;4.28;1.95;;;3.80;94.20;;;;;;2087075;28;20064;-93
2021/11/26 01:02:33;;;;;;;6.20;2.03;;;3.90;94.20;;;;;;2074958;28;20056;-92
2021/11/26 01:03:34;;;;;;;5.75;2.42;;;3.90;94.20;;;;;;2079748;28;20064;-93
2021/11/26 01:04:35;;;;;;;4.68;2.00;;;3.90;94.20;;;;;;2090336;28;20028;-93
2021/11/26 01:05:35;;;;;;;3.67;1.98;;;3.80;94.40;;;;;;2091626;28;20025;-93
2021/11/26 01:06:36;;;;;;;5.22;1.80;;;3.90;94.20;;;;;;2090921;28;20059;-93
2021/11/26 01:07:37;;;;;;;4.25;2.10;;;3.90;94.20;;;;;;2082579;28;20030;-93
2021/11/26 01:08:39;;;;;;;5.88;2.28;;;3.90;94.20;;;;;;2094608;28;20025;-92
2021/11/26 01:09:40;;;;;;;5.20;2.38;;;3.90;94.20;;;;;;2083371;28;20018;-92
2021/11/26 01:10:41;;;;;;;5.45;2.25;;;3.90;94.20;;;;;;2075156;28;20029;-93
2021/11/26 01:11:41;;;;;;;5.90;1.95;;;3.80;94.20;;;;;;2078808;28;20049;-93
2021/11/26 01:12:42;;;;;;;4.63;1.92;;;3.90;94.20;;;;;;2087641;28;20081;-93
2021/11/26 01:13:43;;;;;;;5.78;2.00;;;3.90;94.20;;;;;;2095445;28;20041;-94
2021/11/26 01:14:44;;;;;;;5.88;2.30;;;3.90;94.20;;;;;;2093092;28;20036;-92
2021/11/26 01:15:45;;;;;;;5.57;2.30;;;3.90;94.20;;;;;;2091788;28;20028;-93
2021/11/26 01:16:46;;;;;;;4.22;2.10;;;3.90;94.20;;;;;;2091259;28;20029;-93
2021/11/26 01:17:47;;;;;;;4.50;1.90;;;3.90;94.20;;;;;;2091609;28;20029;-93
2021/11/26 01:18:48;;;;;;;6.13;2.10;;;3.80;94.20;;;;;;2091470;28;20032;-94
2021/11/26 01:19:49;;;;;;;3.40;1.70;;;3.80;94.20;;;;;;2083149;28;20025;-93
2021/11/26 01:20:49;;;;;;;4.93;2.00;;;3.80;94.30;;;;;;2090457;28;20021;-93
2021/11/26 01:21:50;;;;;;;3.88;2.17;;;3.80;94.30;;;;;;2074835;28;20029;-93
2021/11/26 01:22:52;;;;;;;5.50;2.20;;;3.80;94.30;;;;;;2058471;28;20034;-94
2021/11/26 01:23:52;;;;;;;6.65;2.22;;;3.80;94.30;;;;;;2058596;28;20026;-92
2021/11/26 01:24:53;;;;;;;4.55;2.13;;;3.80;94.30;;;;;;2073780;28;20045;-93
2021/11/26 01:25:54;;;;;;;6.50;2.38;;;3.80;94.30;;;;;;2074473;28;20085;-94
2021/11/26 01:26:54;;;;;;;4.05;2.00;;;3.90;94.30;;;;;;2081261;28;20040;-93
2021/11/26 01:27:55;;;;;;;6.22;2.20;;;3.80;94.30;;;;;;2090711;28;20104;-93
2021/11/26 01:28:56;;;;;;;5.15;1.85;;;3.90;94.40;;;;;;2082634;28;20018;-94
2021/11/26 01:29:57;;;;;;;5.70;2.10;;;3.80;94.60;;;;;;2081297;28;20025;-93
2021/11/26 01:30:58;;;;;;;4.68;2.00;;;3.90;94.30;;;;;;2074609;28;20081;-93
2021/11/26 01:31:59;;;;;;;3.65;1.80;;;3.90;94.40;;;;;;2066539;28;20046;-93
2021/11/26 01:33:03;;;;;;;3.83;1.58;;;3.90;94.30;;;;;;2082582;28;20026;-92
2021/11/26 01:34:04;;;;;;;4.32;2.10;;;3.90;94.40;;;;;;2080648;28;20028;-93
2021/11/26 01:35:05;;;;;;;3.55;1.85;;;3.90;94.40;;;;;;2074376;28;20559;-93
2021/11/26 01:36:06;;;;;;;5.38;1.98;;;3.90;94.40;;;;;;2074170;28;20038;-93
2021/11/26 01:37:07;;;;;;;4.60;1.63;;;3.90;94.40;;;;;;2073355;28;20535;-93
2021/11/26 01:38:09;;;;;;;3.40;1.77;;;3.90;94.40;;;;;;2066245;28;20508;-93
2021/11/26 01:39:10;;;;;;;5.57;2.08;;;3.90;94.40;;;;;;2074596;28;20503;-94
2021/11/26 01:40:11;;;;;;;5.55;2.20;;;3.90;94.40;;;;;;2066284;28;20085;-93
2021/11/26 01:41:12;;;;;;;5.28;2.00;;;3.90;94.40;;;;;;2074674;28;20030;-93
2021/11/26 01:42:15;;;;;;;5.60;2.05;;;3.90;94.40;;;;;;2090624;28;20040;-93
2021/11/26 01:43:17;;;;;;;4.57;1.90;;;3.90;94.40;;;;;;2090729;28;20625;-93
2021/11/26 01:44:18;;;;;;;4.72;1.95;;;3.90;94.40;;;;;;2089532;28;20037;-92
2021/11/26 01:45:19;;;;;;;4.72;1.85;;;3.90;94.30;;;;;;2083320;28;20036;-93
2021/11/26 01:46:20;;;;;;;4.40;1.92;;;3.90;94.30;;;;;;2083440;28;20076;-93
2021/11/26 01:47:21;;;;;;;4.13;1.80;;;4.00;94.40;;;;;;2081822;28;20187;-93
2021/11/26 01:48:23;;;;;;;4.07;1.77;;;4.00;94.40;;;;;;2081643;28;20124;-94
2021/11/26 01:49:23;;;;;;;4.57;1.80;;;4.00;94.30;;;;;;2082925;28;20038;-93
2021/11/26 01:50:24;;;;;;;2.70;1.42;;;4.00;94.30;;;;;;2074669;28;20476;-94
2021/11/26 01:51:25;;;;;;;4.47;1.85;;;4.00;94.30;;;;;;2074606;28;20099;-93
2021/11/26 01:52:26;;;;;;;4.68;1.70;;;4.00;94.30;;;;;;2057945;28;20033;-93
2021/11/26 01:53:26;;;;;;;4.50;2.33;;;4.00;94.30;;;;;;2066687;28;20038;-94
2021/11/26 01:54:27;;;;;;;4.65;1.92;;;4.00;94.30;;;;;;2079006;28;20119;-93
2021/11/26 01:55:28;;;;;;;4.10;1.60;;;4.00;94.30;;;;;;2057981;28;20500;-92
2021/11/26 01:56:28;;;;;;;4.95;2.00;;;4.00;94.30;;;;;;2066510;28;20587;-93
2021/11/26 01:57:29;;;;;;;4.43;2.15;;;4.00;94.30;;;;;;2075670;28;20021;-93
2021/11/26 01:58:31;;;;;;;4.60;1.42;;;4.10;94.30;;;;;;2075945;28;20126;-92
2021/11/26 01:59:33;;;;;;;5.65;1.77;;;4.10;94.30;;;;;;2066603;28;20027;-94
2021/11/26 02:00:34;;;;;;;5.70;1.67;;;4.10;94.30;;;;;;2057052;28;20122;-93
2021/11/26 02:01:35;;;;;;;5.07;1.75;;;4.10;94.30;;;;;;2066611;28;20125;-93
2021/11/26 02:02:36;;;;;;;5.65;1.98;;;4.10;94.30;;;;;;2074255;28;20030;-93
2021/11/26 02:03:37;;;;;;;4.47;1.65;;;4.10;94.30;;;;;;2087474;28;20025;-93
2021/11/26 02:04:37;;;;;;;4.78;1.90;;;4.10;94.30;;;;;;2083253;28;20029;-93
2021/11/26 02:05:38;;;;;;;4.28;1.85;;;4.10;94.30;;;;;;2082287;28;20041;-87
2021/11/26 02:06:39;;;;;;;5.07;1.70;;;4.10;94.30;;;;;;2101046;28;20005;-88
2021/11/26 02:07:39;;;;;;;4.47;2.00;;;4.10;94.30;;;;;;2099795;28;20084;-84
2021/11/26 02:08:40;;;;;;;5.70;1.80;;;4.10;94.30;;;;;;2089402;28;20041;-83
2021/11/26 02:09:41;;;;;;;3.15;1.58;;;4.10;94.30;;;;;;2092233;28;20028;-90
2021/11/26 02:10:43;;;;;;;3.53;1.30;;;4.10;94.30;;;;;;2099648;28;20020;-94
2021/11/26 02:11:43;;;;;;;4.88;1.27;;;4.20;94.30;;;;;;2100158;28;20063;-94
2021/11/26 02:12:44;;;;;;;3.42;1.48;;;4.20;94.30;;;;;;2084360;28;20052;-87
2021/11/26 02:13:45;;;;;;;4.95;1.80;;;4.20;94.30;;;;;;2092152;28;20049;-92
2021/11/26 02:14:46;;;;;;;3.97;1.70;;;4.20;94.30;;;;;;2099697;28;20112;-94
2021/11/26 02:15:47;;;;;;;2.78;1.40;;;4.20;94.30;;;;;;2100469;28;20076;-91
2021/11/26 02:16:50;;;;;;;3.42;1.23;;;4.20;94.30;;;;;;2084039;28;20025;-94
2021/11/26 02:17:53;;;;;;;3.53;1.55;;;4.20;94.30;;;;;;2075057;28;20018;-92
2021/11/26 02:18:54;;;;;;;4.20;1.33;;;4.20;94.30;;;;;;2082821;28;20021;-91
2021/11/26 02:19:56;;;;;;;3.50;1.40;;;4.20;94.30;;;;;;2083527;28;20049;-92
2021/11/26 02:20:57;;;;;;;2.92;1.35;;;4.20;94.30;;;;;;2083159;28;20541;-92
2021/11/26 02:21:58;;;;;;;4.28;1.27;;;4.20;94.30;;;;;;2090043;28;20021;-92
2021/11/26 02:22:59;;;;;;;3.78;1.20;;;4.20;94.30;;;;;;2082942;28;20084;-93
2021/11/26 02:24:00;;;;;;;2.95;0.98;;;4.20;94.30;;;;;;2081744;28;20495;-92
2021/11/26 02:25:00;;;;;;;4.25;1.10;;;4.20;94.30;;;;;;2073826;28;20057;-92
2021/11/26 02:26:03;;;;;;;2.53;1.10;;;4.30;94.30;;;;;;2066414;28;20031;-93
2021/11/26 02:27:04;;;;;;;4.30;1.30;;;4.20;94.30;;;;;;2066653;28;20019;-92
2021/11/26 02:28:06;;;;;;;2.00;1.00;;;4.30;94.30;;;;;;2090665;28;20367;-92
2021/11/26 02:29:08;;;;;;;2.38;0.98;;;4.30;94.30;;;;;;2089760;28;20159;-92
2021/11/26 02:30:14;;;;;;;2.42;0.90;;;4.30;94.30;;;;;;2091228;28;20021;-92
2021/11/26 02:31:15;;;;;;;4.53;1.08;;;4.30;94.30;;;;;;2090034;28;20032;-92
2021/11/26 02:32:15;;;;;;;1.80;0.90;;;4.30;94.60;;;;;;2085739;28;20420;-92
2021/11/26 02:33:19;;;;;;;1.20;0.80;;;4.30;94.30;;;;;;2075285;28;20400;-92
2021/11/26 02:34:21;;;;;;;2.47;1.10;;;4.30;94.30;;;;;;2081986;28;20076;-92
2021/11/26 02:35:23;;;;;;;2.65;0.90;;;4.30;94.30;;;;;;2082055;28;20048;-92
2021/11/26 02:36:24;;;;;;;2.15;0.80;;;4.40;94.30;;;;;;2073450;28;20030;-92
2021/11/26 02:37:24;;;;;;;2.03;0.82;;;4.40;94.30;;;;;;2057939;28;20069;-92
2021/11/26 02:38:27;;;;;;;1.85;0.90;;;4.40;94.30;;;;;;2058147;28;20034;-92
2021/11/26 02:39:27;;;;;;;2.22;0.93;;;4.40;94.30;;;;;;2082211;28;20073;-92
2021/11/26 02:40:30;;;;;;;2.58;0.90;;;4.40;94.30;;;;;;2074279;28;20467;-93
2021/11/26 02:41:30;;;;;;;1.38;0.90;;;4.40;94.30;;;;;;2082774;28;20021;-93
2021/11/26 02:42:31;;;;;;;3.45;1.33;;;4.40;94.30;;;;;;2066122;28;20026;-93
2021/11/26 02:43:32;;;;;;;2.47;0.90;;;4.40;94.30;;;;;;2061756;28;20444;-93
2021/11/26 02:44:32;;;;;;;1.95;0.68;;;4.40;94.30;;;;;;2073739;28;20061;-94
2021/11/26 02:45:33;;;;;;;2.45;0.80;;;4.40;94.30;;;;;;2072402;28;20483;-93
2021/11/26 02:46:35;;;;;;;2.65;0.88;;;4.50;94.60;;;;;;2082064;28;20064;-93
2021/11/26 02:47:37;;;;;;;1.70;0.70;;;4.50;94.30;;;;;;2090332;28;20021;-93
2021/11/26 02:48:38;;;;;;;2.20;0.90;;;4.50;94.30;;;;;;2082040;28;20029;-93
2021/11/26 02:49:38;;;;;;;1.55;0.60;;;4.50;94.30;;;;;;2074303;28;20030;-93
2021/11/26 02:50:40;;;;;;;1.98;0.80;;;4.50;94.30;;;;;;2066123;28;20030;-93
2021/11/26 02:51:41;;;;;;;2.60;0.68;;;4.50;94.30;;;;;;2074490;28;20033;-93
2021/11/26 02:52:43;;;;;;;2.65;0.88;;;4.50;94.30;;;;;;2066219;28;20066;-92
2021/11/26 02:53:43;;;;;;;4.30;0.80;;;4.50;94.30;;;;;;2074074;28;20022;-94
2021/11/26 02:54:44;;;;;;;1.95;0.70;;;4.60;94.30;;;;;;2083180;28;20026;-93
2021/11/26 02:55:45;;;;;;;2.13;0.80;;;4.50;94.30;;;;;;2074609;28;20407;-93
2021/11/26 02:56:46;;;;;;;1.63;0.70;;;4.60;94.30;;;;;;2065613;28;20101;-93
2021/11/26 02:57:47;;;;;;;1.73;0.70;;;4.50;94.30;;;;;;2064951;28;20026;-92
2021/11/26 02:58:48;;;;;;;1.88;0.73;;;4.60;94.30;;;;;;2057697;28;20030;-93
2021/11/26 02:59:49;;;;;;;2.58;1.05;;;4.60;94.30;;;;;;2065932;28;20038;-93
2021/11/26 03:00:54;;;;;;;1.77;0.70;;;4.60;94.30;;;;;;2049775;28;20027;-93
2021/11/26 03:01:54;;;;;;;1.80;0.65;;;4.60;94.30;;;;;;2058106;28;20022;-93
2021/11/26 03:02:56;;;;;;;2.70;0.60;;;4.60;94.30;;;;;;2057822;28;20033;-94
2021/11/26 03:03:57;;;;;;;1.20;0.70;;;4.60;94.30;;;;;;2046165;28;20032;-93
2021/11/26 03:04:58;;;;;;;2.17;0.70;;;4.60;94.30;;;;;;2057800;28;20034;-92
2021/11/26 03:06:01;;;;;;;1.63;0.70;;;4.60;94.30;;;;;;2048517;29;20079;-93
2021/11/26 03:07:06;;;;;;;1.73;0.70;;;4.60;94.40;;;;;;2058495;28;20470;-92
2021/11/26 03:08:07;;;;;;;2.78;0.77;;;4.60;94.40;;;;;;2058111;28;20528;-92
2021/11/26 03:09:08;;;;;;;1.85;0.60;;;4.60;94.40;;;;;;2065976;28;20027;-93
2021/11/26 03:10:10;;;;;;;1.30;0.70;;;4.60;94.40;;;;;;2049732;29;20103;-92
2021/11/26 03:11:10;;;;;;;1.83;0.65;;;4.60;94.40;;;;;;2044027;28;20458;-93
2021/11/26 03:12:13;;;;;;;1.35;0.50;;;4.60;94.40;;;;;;2073978;28;20030;-93
2021/11/26 03:13:13;;;;;;;1.38;0.75;;;4.60;94.40;;;;;;2082738;28;20440;-94
2021/11/26 03:14:14;;;;;;;2.40;0.90;;;4.60;94.40;;;;;;2065480;28;20094;-93
2021/11/26 03:15:16;;;;;;;1.70;0.73;;;4.60;94.40;;;;;;2049874;29;20061;-92
2021/11/26 03:16:17;;;;;;;2.40;0.90;;;4.60;94.40;;;;;;2047432;28;20686;-93
2021/11/26 03:17:18;;;;;;;2.85;1.00;;;4.60;94.40;;;;;;2048964;28;20031;-93
2021/11/26 03:18:20;;;;;;;1.67;0.80;;;4.60;94.40;;;;;;2074079;28;20030;-93
2021/11/26 03:19:21;;;;;;;1.80;0.93;;;4.60;94.40;;;;;;2065500;28;20073;-93
2021/11/26 03:20:25;;;;;;;2.13;1.10;;;4.60;94.40;;;;;;2066014;28;20100;-92
2021/11/26 03:21:25;;;;;;;2.92;0.80;;;4.60;94.40;;;;;;2071493;28;20042;-93
2021/11/26 03:22:26;;;;;;;2.08;0.80;;;4.50;94.40;;;;;;2073819;28;20030;-93
2021/11/26 03:23:27;;;;;;;2.97;1.02;;;4.60;94.40;;;;;;2082631;28;20030;-93
2021/11/26 03:24:27;;;;;;;2.17;0.90;;;4.50;94.40;;;;;;2072052;28;20030;-93
2021/11/26 03:25:28;;;;;;;2.83;1.20;;;4.60;94.40;;;;;;2072848;28;20113;-93
2021/11/26 03:26:29;;;;;;;1.92;1.00;;;4.50;94.40;;;;;;2070680;28;20029;-93
2021/11/26 03:27:30;;;;;;;2.95;1.30;;;4.50;94.40;;;;;;2065579;28;20022;-93
2021/11/26 03:28:30;;;;;;;2.80;1.38;;;4.50;94.50;;;;;;2073518;28;20028;-92
2021/11/26 03:29:31;;;;;;;2.40;1.20;;;4.60;94.50;;;;;;2073324;28;20030;-93
2021/11/26 03:30:32;;;;;;;2.85;1.20;;;4.50;94.50;;;;;;2073506;28;20050;-93
2021/11/26 03:31:32;;;;;;;2.50;1.52;;;4.50;94.50;;;;;;2049638;29;20031;-93
2021/11/26 03:32:33;;;;;;;2.03;1.20;;;4.50;94.50;;;;;;2064884;28;20034;-93
2021/11/26 03:33:34;;;;;;;2.55;1.30;;;4.50;94.50;;;;;;2073629;28;20036;-92
2021/11/26 03:34:34;;;;;;;2.03;1.30;;;4.50;94.50;;;;;;2057105;28;20046;-93
2021/11/26 03:35:35;;;;;;;2.53;1.50;;;4.50;94.50;;;;;;2057181;28;20031;-93
2021/11/26 03:36:36;;;;;;;3.60;1.73;;;4.50;94.50;;;;;;2059436;28;20031;-93
2021/11/26 03:37:37;;;;;;;2.33;1.40;;;4.50;94.60;;;;;;2050603;28;20035;-92
2021/11/26 03:38:37;;;;;;;2.45;1.60;;;4.50;94.60;;;;;;2043950;29;20024;-93
2021/11/26 03:39:38;;;;;;;2.80;1.70;;;4.50;94.60;;;;;;2060186;28;20023;-92
2021/11/26 03:40:39;;;;;;;3.70;1.73;;;4.50;94.60;;;;;;2063503;28;20023;-93
2021/11/26 03:41:39;;;;;;;3.42;2.00;;;4.50;94.60;;;;;;2067627;28;20045;-93
2021/11/26 03:42:40;;;;;;;4.07;1.90;;;4.50;94.80;;;;;;2065560;28;20031;-92
2021/11/26 03:43:41;;;;;;;2.42;1.67;;;4.50;94.60;;;;;;2057375;28;20031;-93
2021/11/26 03:44:42;;;;;;;4.57;1.85;;;4.50;94.60;;;;;;2041600;29;20031;-92
2021/11/26 03:45:43;;;;;;;2.85;1.90;;;4.40;94.60;;;;;;2055515;28;20030;-93
2021/11/26 03:46:44;;;;;;;4.47;2.22;;;4.50;94.60;;;;;;2054165;28;20037;-93
2021/11/26 03:47:45;;;;;;;4.78;1.88;;;4.40;94.60;;;;;;2052290;28;20389;-93
2021/11/26 03:48:47;;;;;;;3.80;2.30;;;4.50;94.60;;;;;;2049710;28;20038;-94
2021/11/26 03:49:47;;;;;;;4.45;2.20;;;4.40;94.60;;;;;;2061064;28;20018;-93
2021/11/26 03:50:48;;;;;;;4.93;2.30;;;4.40;94.60;;;;;;2049551;28;20058;-92
2021/11/26 03:51:48;;;;;;;3.58;2.13;;;4.50;94.60;;;;;;2056934;28;20035;-92
2021/11/26 03:52:51;;;;;;;3.58;2.10;;;4.50;94.60;;;;;;2058512;28;20047;-93
2021/11/26 03:53:52;;;;;;;4.07;2.30;;;4.40;94.60;;;;;;2055334;28;20046;-91
2021/11/26 03:54:53;;;;;;;3.65;2.40;;;4.50;94.60;;;;;;2066240;28;20039;-92
2021/11/26 03:55:54;;;;;;;4.32;2.47;;;4.50;94.60;;;;;;2088537;28;20480;-91
2021/11/26 03:56:55;;;;;;;4.35;2.30;;;4.40;94.60;;;;;;2098621;28;20104;-93
2021/11/26 03:57:57;;;;;;;3.88;2.05;;;4.50;94.60;;;;;;2100276;28;20019;-86
2021/11/26 03:58:58;;;;;;;4.80;2.22;;;4.50;94.60;;;;;;2091823;28;20014;-85
2021/11/26 03:59:59;;;;;;;3.83;2.30;;;4.50;94.60;;;;;;2075335;28;20023;-91
2021/11/26 04:00:59;;;;;;;4.57;2.35;;;4.50;94.90;;;;;;2084020;28;20164;-89
2021/11/26 04:02:00;;;;;;;4.68;2.60;;;4.50;94.60;;;;;;2091801;28;20014;-81
2021/11/26 04:03:01;;;;;;;4.22;2.45;;;4.50;94.60;;;;;;2083904;28;20060;-85
2021/11/26 04:04:02;;;;;;;3.67;2.40;;;4.50;94.60;;;;;;2090344;28;20022;-84
2021/11/26 04:05:03;;;;;;;3.00;2.30;;;4.50;94.60;;;;;;2090351;28;20084;-94
2021/11/26 04:06:04;;;;;;;5.25;2.40;;;4.50;94.60;;;;;;2081781;28;20403;-94
2021/11/26 04:07:05;;;;;;;3.92;2.33;;;4.50;94.60;;;;;;2080197;28;20120;-92
2021/11/26 04:08:06;;;;;;;3.65;2.30;;;4.50;94.60;;;;;;2089768;28;20025;-93
2021/11/26 04:09:06;;;;;;;3.58;2.15;;;4.50;94.60;;;;;;2081764;28;20543;-92
2021/11/26 04:10:08;;;;;;;4.05;2.55;;;4.50;94.60;;;;;;2073599;28;20025;-93
2021/11/26 04:11:09;;;;;;;4.00;2.60;;;4.50;94.60;;;;;;2073716;28;20026;-92
2021/11/26 04:12:10;;;;;;;5.30;2.55;;;4.60;94.60;;;;;;2073625;28;20060;-93
2021/11/26 04:13:13;;;;;;;3.65;2.35;;;4.60;94.60;;;;;;2089734;28;20426;-93
2021/11/26 04:14:13;;;;;;;3.83;2.67;;;4.60;94.60;;;;;;2081248;28;20079;-93
2021/11/26 04:15:15;;;;;;;5.28;2.63;;;4.50;94.80;;;;;;2081689;28;20515;-93
2021/11/26 04:16:17;;;;;;;6.60;2.45;;;4.60;94.60;;;;;;2081887;28;20036;-93
2021/11/26 04:17:17;;;;;;;5.03;2.40;;;4.60;94.60;;;;;;2071962;28;20042;-93
2021/11/26 04:18:18;;;;;;;3.22;2.13;;;4.60;94.60;;;;;;2065401;28;20394;-92
2021/11/26 04:19:19;;;;;;;3.10;2.08;;;4.60;94.60;;;;;;2076090;28;20416;-93
2021/11/26 04:20:20;;;;;;;4.05;2.45;;;4.60;94.60;;;;;;2088878;28;20130;-92
2021/11/26 04:21:20;;;;;;;2.90;2.40;;;4.60;94.60;;;;;;2089959;28;20029;-92
2021/11/26 04:22:21;;;;;;;4.57;2.28;;;4.60;94.60;;;;;;2081057;28;20033;-92
2021/11/26 04:23:22;;;;;;;3.33;2.30;;;4.60;94.60;;;;;;2081553;28;20065;-94
2021/11/26 04:24:23;;;;;;;3.70;2.28;;;4.60;94.60;;;;;;2080840;28;20025;-93
2021/11/26 04:25:24;;;;;;;4.40;2.25;;;4.60;94.60;;;;;;2081868;28;20064;-93
2021/11/26 04:26:25;;;;;;;3.58;2.22;;;4.60;94.60;;;;;;2081966;28;20035;-92
2021/11/26 04:27:25;;;;;;;5.75;2.53;;;4.60;94.60;;;;;;2081016;28;20089;-94
2021/11/26 04:28:26;;;;;;;4.82;2.78;;;4.60;94.60;;;;;;2072936;28;20108;-93
2021/11/26 04:29:27;;;;;;;3.97;2.30;;;4.60;94.60;;;;;;2072715;28;20032;-91
2021/11/26 04:30:29;;;;;;;4.30;2.25;;;4.60;94.60;;;;;;2073769;28;20047;-94
2021/11/26 04:31:30;;;;;;;3.22;1.85;;;4.60;94.60;;;;;;2082043;28;20030;-91
2021/11/26 04:32:31;;;;;;;5.55;2.00;;;4.60;94.60;;;;;;2080963;28;20108;-93
2021/11/26 04:33:33;;;;;;;3.53;1.98;;;4.60;94.60;;;;;;2073025;28;20033;-92
2021/11/26 04:34:34;;;;;;;2.72;1.70;;;4.70;94.60;;;;;;2081679;28;20037;-92
2021/11/26 04:35:35;;;;;;;2.53;1.60;;;4.70;94.60;;;;;;2088673;28;20053;-93
2021/11/26 04:36:35;;;;;;;3.60;1.80;;;4.60;94.60;;;;;;2073234;28;20030;-92
2021/11/26 04:37:37;;;;;;;3.85;1.83;;;4.60;94.60;;;;;;2073060;28;20021;-92
2021/11/26 04:38:37;;;;;;;3.17;1.63;;;4.60;94.60;;;;;;2089767;28;20040;-92
2021/11/26 04:39:38;;;;;;;2.85;1.67;;;4.70;94.60;;;;;;2081783;28;20064;-92
2021/11/26 04:40:39;;;;;;;2.42;1.33;;;4.70;94.60;;;;;;2072978;28;20041;-93
2021/11/26 04:41:39;;;;;;;2.88;1.60;;;4.70;94.60;;;;;;2081078;28;20076;-93
2021/11/26 04:42:44;;;;;;;2.35;1.40;;;4.70;94.70;;;;;;2073368;28;20036;-92
2021/11/26 04:43:45;;;;;;;3.10;1.50;;;4.70;94.60;;;;;;2070346;28;20085;-92
2021/11/26 04:44:45;;;;;;;2.50;1.30;;;4.70;94.60;;;;;;2057278;28;20588;-91
2021/11/26 04:45:49;;;;;;;2.17;1.10;;;4.70;94.60;;;;;;2064657;28;20056;-92
2021/11/26 04:46:50;;;;;;;2.75;1.35;;;4.70;94.60;;;;;;2065701;28;20022;-92
2021/11/26 04:47:51;;;;;;;2.00;1.13;;;4.70;94.60;;;;;;2081502;28;20025;-94
2021/11/26 04:48:51;;;;;;;2.70;1.10;;;4.70;94.60;;;;;;2073047;28;20030;-92
2021/11/26 04:49:52;;;;;;;1.50;0.80;;;4.70;94.60;;;;;;2077834;28;20041;-93
2021/11/26 04:50:53;;;;;;;2.55;0.90;;;4.70;94.60;;;;;;2081548;28;20037;-93
2021/11/26 04:51:54;;;;;;;2.05;1.00;;;4.70;94.60;;;;;;2088208;28;20458;-92
2021/11/26 04:52:55;;;;;;;2.50;0.98;;;4.70;94.50;;;;;;2089647;28;20154;-92
2021/11/26 04:53:55;;;;;;;1.73;0.85;;;4.70;94.60;;;;;;2087423;28;20032;-92
2021/11/26 04:54:56;;;;;;;2.75;0.80;;;4.70;94.60;;;;;;2090351;28;20033;-93
2021/11/26 04:55:56;;;;;;;1.88;0.85;;;4.80;94.60;;;;;;2088307;28;20025;-92
2021/11/26 04:56:57;;;;;;;3.42;1.02;;;4.80;94.60;;;;;;2072093;28;20042;-91
2021/11/26 04:57:58;;;;;;;1.90;0.80;;;4.80;94.60;;;;;;2048720;28;20470;-92
2021/11/26 04:58:59;;;;;;;2.55;0.80;;;4.80;94.60;;;;;;2049158;28;20035;-93
2021/11/26 05:00:00;;;;;;;2.85;0.90;;;4.80;94.60;;;;;;2070378;28;20030;-93
2021/11/26 05:01:03;;;;;;;2.30;0.77;;;4.80;94.60;;;;;;2073832;28;20026;-92
2021/11/26 05:02:04;;;;;;;3.47;0.90;;;4.80;94.60;;;;;;2071384;28;20018;-92
2021/11/26 05:03:05;;;;;;;1.10;0.60;;;4.80;94.60;;;;;;2065975;28;20050;-92
2021/11/26 05:04:06;;;;;;;1.45;0.80;;;4.80;94.60;;;;;;2057799;28;20034;-92
2021/11/26 05:05:07;;;;;;;1.70;0.73;;;4.80;94.60;;;;;;2065447;28;20031;-92
2021/11/26 05:06:08;;;;;;;1.08;0.60;;;4.80;94.60;;;;;;2064860;28;20022;-93
2021/11/26 05:07:08;;;;;;;1.15;0.55;;;4.80;94.50;;;;;;2065537;28;20045;-91
2021/11/26 05:08:09;;;;;;;2.47;0.60;;;4.80;94.60;;;;;;2058458;28;20016;-92
2021/11/26 05:09:10;;;;;;;1.33;0.60;;;4.80;94.60;;;;;;2067066;28;20035;-92
2021/11/26 05:10:11;;;;;;;2.38;0.55;;;4.80;94.60;;;;;;2072770;28;20030;-91
2021/11/26 05:11:12;;;;;;;2.72;0.80;;;4.80;94.60;;;;;;2067099;28;20115;-90
2021/11/26 05:12:14;;;;;;;2.45;0.90;;;4.70;94.60;;;;;;2064306;28;20199;-92
2021/11/26 05:13:14;;;;;;;1.45;0.60;;;4.70;94.80;;;;;;2050430;28;20494;-92
2021/11/26 05:14:18;;;;;;;2.10;0.60;;;4.70;94.60;;;;;;2057114;28;20051;-93
2021/11/26 05:15:26;;;;;;;1.25;0.50;;;4.70;94.60;;;;;;2050682;28;20491;-93
2021/11/26 05:16:26;;;;;;;0.95;0.50;;;4.70;94.60;;;;;;2051332;28;20034;-92
2021/11/26 05:17:27;;;;;;;1.15;0.45;;;4.70;94.60;;;;;;2048150;28;20042;-92
2021/11/26 05:18:28;;;;;;;2.65;0.65;;;4.70;94.60;;;;;;2039919;29;20074;-93
2021/11/26 05:19:28;;;;;;;1.33;0.50;;;4.70;94.60;;;;;;2049275;29;20455;-92
2021/11/26 05:20:32;;;;;;;2.78;0.50;;;4.70;94.60;;;;;;2048248;28;20529;-93
2021/11/26 05:21:32;;;;;;;4.18;0.60;;;4.70;94.90;;;;;;2065740;28;20026;-85
2021/11/26 05:22:33;;;;;;;1.60;0.50;;;4.70;94.60;;;;;;2067070;28;20030;-82
2021/11/26 05:23:34;;;;;;;1.58;0.55;;;4.70;94.70;;;;;;2059375;28;20031;-83